createdAt,value
2023-03-06T00:00:52.683Z,6.32
2023-03-06T00:03:23.378Z,4.75
2023-03-06T00:05:50.922Z,4.43
2023-03-06T00:08:18.316Z,5.13
2023-03-06T00:10:46.062Z,5.93
2023-03-06T00:13:16.359Z,6.22
2023-03-06T00:15:49.385Z,3.42
2023-03-06T00:18:16.947Z,7.93
2023-03-06T00:20:44.869Z,7.00
2023-03-06T00:23:15.554Z,6.97
2023-03-06T00:25:45.261Z,5.70
2023-03-06T00:28:15.934Z,5.38
2023-03-06T00:30:43.887Z,5.00
2023-03-06T00:33:15.062Z,4.25
2023-03-06T00:35:42.452Z,4.40
2023-03-06T00:38:14.821Z,4.13
2023-03-06T00:40:42.293Z,3.88
2023-03-06T00:43:09.620Z,2.80
2023-03-06T00:45:37.526Z,4.28
2023-03-06T00:48:07.397Z,2.78
2023-03-06T00:50:35.471Z,3.35
2023-03-06T00:53:05.933Z,3.53
2023-03-06T00:55:34.244Z,3.50
2023-03-06T00:58:04.491Z,3.05
2023-03-06T01:00:31.945Z,4.07
2023-03-06T01:02:59.286Z,3.72
2023-03-06T01:05:26.863Z,4.60
2023-03-06T01:07:56.352Z,4.25
2023-03-06T01:10:24.051Z,4.60
2023-03-06T01:12:51.589Z,3.97
2023-03-06T01:15:18.978Z,4.40
2023-03-06T01:17:46.241Z,4.55
2023-03-06T01:20:15.974Z,4.00
2023-03-06T01:22:43.584Z,3.72
2023-03-06T01:25:11.680Z,4.68
2023-03-06T01:27:39.123Z,3.72
2023-03-06T01:30:07.252Z,4.07
2023-03-06T01:32:34.899Z,4.35
2023-03-06T01:35:04.546Z,4.18
2023-03-06T01:37:31.912Z,3.88
2023-03-06T01:39:59.272Z,4.85
2023-03-06T01:42:26.544Z,4.72
2023-03-06T01:45:15.097Z,4.25
2023-03-06T01:47:44.308Z,4.25
2023-03-06T01:50:12.821Z,4.40
2023-03-06T01:52:50.381Z,4.68
2023-03-06T01:55:25.028Z,3.65
2023-03-06T01:58:01.674Z,4.82
2023-03-06T02:00:29.800Z,5.05
2023-03-06T02:03:13.536Z,4.57
2023-03-06T02:05:42.265Z,4.20
2023-03-06T02:08:11.546Z,5.35
2023-03-06T02:11:09.027Z,3.70
2023-03-06T02:13:40.440Z,4.10
2023-03-06T02:16:11.687Z,3.67
2023-03-06T02:18:41.052Z,4.65
2023-03-06T02:21:20.368Z,4.07
2023-03-06T02:24:25.361Z,4.30
2023-03-06T02:26:54.309Z,3.35
2023-03-06T02:29:25.009Z,3.78
2023-03-06T02:31:54.863Z,4.13
2023-03-06T02:34:22.104Z,4.18
2023-03-06T02:36:52.603Z,4.28
2023-03-06T02:39:24.055Z,4.47
2023-03-06T02:41:52.230Z,2.97
2023-03-06T02:44:21.507Z,3.55
2023-03-06T02:46:48.843Z,4.13
2023-03-06T02:49:16.280Z,2.95
2023-03-06T02:51:43.563Z,3.60
2023-03-06T02:54:12.473Z,3.60
2023-03-06T02:56:41.989Z,3.75
2023-03-06T02:59:11.678Z,3.70
2023-03-06T03:01:39.905Z,4.05
2023-03-06T03:04:10.084Z,4.13
2023-03-06T03:06:39.830Z,3.97
2023-03-06T03:09:07.651Z,5.07
2023-03-06T03:11:35.925Z,3.50
2023-03-06T03:14:03.202Z,3.33
2023-03-06T03:16:30.895Z,3.58
2023-03-06T03:18:59.350Z,3.65
2023-03-06T03:21:27.847Z,4.13
2023-03-06T03:23:56.074Z,3.80
2023-03-06T03:26:28.254Z,3.58
2023-03-06T03:29:05.244Z,3.60
2023-03-06T03:31:32.928Z,3.72
2023-03-06T03:34:04.386Z,3.15
2023-03-06T03:36:35.502Z,3.05
2023-03-06T03:39:04.279Z,3.67
2023-03-06T03:41:32.727Z,4.30
2023-03-06T03:44:04.924Z,4.07
2023-03-06T03:46:34.877Z,4.25
2023-03-06T03:49:03.676Z,4.25
2023-03-06T03:51:32.727Z,4.18
2023-03-06T03:54:00.745Z,3.53
2023-03-06T03:56:34.317Z,3.90
2023-03-06T03:59:08.109Z,4.05
2023-03-06T04:01:46.030Z,3.38
2023-03-06T04:04:14.698Z,4.25
2023-03-06T04:06:44.073Z,3.95
2023-03-06T04:09:11.682Z,3.92
2023-03-06T04:11:39.373Z,3.67
2023-03-06T04:14:08.442Z,3.53
2023-03-06T04:16:36.089Z,4.20
2023-03-06T04:19:03.560Z,3.88
2023-03-06T04:21:31.509Z,3.83
2023-03-06T04:23:58.886Z,6.55
2023-03-06T04:26:26.486Z,9.40
2023-03-06T04:28:55.672Z,8.18
2023-03-06T04:31:23.277Z,7.45
2023-03-06T04:33:55.621Z,6.55
2023-03-06T04:36:34.947Z,7.05
2023-03-06T04:39:07.045Z,5.70
2023-03-06T04:41:35.480Z,8.15
2023-03-06T04:44:03.196Z,7.85
2023-03-06T04:46:30.542Z,5.85
2023-03-06T04:48:58.050Z,5.45
2023-03-06T04:51:25.504Z,5.88
2023-03-06T04:53:52.893Z,5.70
2023-03-06T04:56:20.183Z,4.93
2023-03-06T04:58:47.643Z,4.90
2023-03-06T05:01:15.025Z,4.82
2023-03-06T05:03:42.424Z,3.55
2023-03-06T05:06:09.760Z,4.38
2023-03-06T05:08:37.130Z,4.35
2023-03-06T05:11:07.464Z,4.78
2023-03-06T05:13:34.769Z,4.78
2023-03-06T05:16:06.897Z,5.57
2023-03-06T05:18:35.160Z,4.05
2023-03-06T05:21:08.826Z,4.85
2023-03-06T05:23:38.668Z,3.88
2023-03-06T05:26:11.973Z,4.30
2023-03-06T05:28:42.676Z,5.63
2023-03-06T05:31:12.913Z,6.57
2023-03-06T05:33:42.987Z,9.30
2023-03-06T05:36:10.546Z,9.30
2023-03-06T05:38:37.970Z,8.50
2023-03-06T05:41:06.732Z,10.60
2023-03-06T05:43:34.041Z,9.60
2023-03-06T05:46:06.305Z,8.40
2023-03-06T05:48:35.183Z,8.30
2023-03-06T05:51:02.993Z,8.48
2023-03-06T05:53:31.100Z,9.45
2023-03-06T05:56:11.129Z,9.95
2023-03-06T05:58:41.791Z,9.18
2023-03-06T06:01:16.363Z,9.82
2023-03-06T06:03:44.013Z,9.10
2023-03-06T06:06:14.303Z,9.63
2023-03-06T06:08:42.212Z,8.40
2023-03-06T06:11:10.808Z,9.32
2023-03-06T06:13:39.130Z,8.20
2023-03-06T06:16:16.535Z,7.68
2023-03-06T06:18:44.057Z,8.20
2023-03-06T06:21:14.522Z,8.60
2023-03-06T06:23:42.634Z,8.25
2023-03-06T06:26:10.730Z,7.43
2023-03-06T06:28:38.371Z,8.55
2023-03-06T06:31:12.607Z,8.85
2023-03-06T06:33:44.557Z,8.45
2023-03-06T06:36:20.751Z,7.53
2023-03-06T06:38:48.997Z,8.20
2023-03-06T06:41:39.329Z,8.68
2023-03-06T06:44:14.654Z,7.82
2023-03-06T06:49:39.513Z,14.30
2023-03-06T06:52:13.465Z,18.38
2023-03-06T06:54:40.952Z,20.67
2023-03-06T06:57:12.631Z,17.48
2023-03-06T06:59:39.976Z,11.88
2023-03-06T07:02:07.698Z,10.85
2023-03-06T07:04:46.493Z,7.95
2023-03-06T07:07:25.518Z,7.35
2023-03-06T07:09:53.977Z,7.15
2023-03-06T07:12:21.328Z,7.60
2023-03-06T07:14:52.266Z,7.97
2023-03-06T07:17:22.029Z,7.80
2023-03-06T07:19:49.413Z,6.78
2023-03-06T07:22:16.786Z,6.88
2023-03-06T07:24:44.133Z,7.03
2023-03-06T07:27:11.528Z,6.05
2023-03-06T07:29:41.253Z,6.75
2023-03-06T07:32:08.688Z,8.23
2023-03-06T07:34:36.106Z,6.20
2023-03-06T07:37:03.628Z,6.45
2023-03-06T07:39:34.302Z,6.63
2023-03-06T07:42:01.837Z,6.95
2023-03-06T07:44:29.211Z,6.53
2023-03-06T07:46:56.618Z,6.53
2023-03-06T07:49:24.075Z,6.25
2023-03-06T07:51:51.363Z,5.35
2023-03-06T07:54:18.771Z,5.35
2023-03-06T07:56:52.663Z,6.65
2023-03-06T07:59:22.866Z,6.13
2023-03-06T08:01:50.473Z,6.72
2023-03-06T08:04:17.967Z,7.43
2023-03-06T08:06:45.465Z,10.63
2023-03-06T08:09:12.896Z,11.07
2023-03-06T08:11:40.331Z,10.77
2023-03-06T08:14:07.794Z,11.82
2023-03-06T08:16:35.270Z,10.20
2023-03-06T08:19:05.200Z,8.63
2023-03-06T08:21:32.735Z,8.05
2023-03-06T08:24:00.193Z,6.47
2023-03-06T08:26:30.238Z,6.15
2023-03-06T08:29:01.758Z,6.68
2023-03-06T08:31:33.554Z,7.93
2023-03-06T08:34:04.222Z,6.45
2023-03-06T08:36:31.608Z,7.00
2023-03-06T08:39:00.689Z,6.95
2023-03-06T08:41:28.481Z,6.70
2023-03-06T08:44:01.112Z,7.78
2023-03-06T08:46:29.966Z,7.38
2023-03-06T08:48:58.052Z,7.25
2023-03-06T08:51:26.746Z,9.70
2023-03-06T08:53:54.232Z,6.13
2023-03-06T08:56:30.618Z,6.60
2023-03-06T08:58:59.648Z,7.00
2023-03-06T09:01:36.228Z,6.45
2023-03-06T09:04:06.914Z,5.75
2023-03-06T09:06:37.862Z,7.90
2023-03-06T09:09:11.836Z,5.82
2023-03-06T09:11:40.052Z,5.15
2023-03-06T09:14:07.529Z,4.50
2023-03-06T09:16:35.057Z,5.63
2023-03-06T09:19:03.587Z,5.80
2023-03-06T09:21:32.063Z,5.00
2023-03-06T09:24:00.344Z,5.38
2023-03-06T09:26:43.191Z,6.65
2023-03-06T09:29:12.757Z,5.82
2023-03-06T09:31:42.474Z,9.18
2023-03-06T09:34:09.800Z,5.97
2023-03-06T09:36:55.841Z,6.00
2023-03-06T09:39:26.049Z,6.60
2023-03-06T09:41:56.781Z,6.10
2023-03-06T09:44:27.889Z,5.00
2023-03-06T09:47:10.462Z,6.28
2023-03-06T09:50:11.539Z,6.28
2023-03-06T09:53:11.995Z,5.22
2023-03-06T09:55:46.585Z,4.28
2023-03-06T09:58:23.149Z,5.25
2023-03-06T10:01:35.810Z,4.85
2023-03-06T10:04:28.292Z,6.05
2023-03-06T10:07:18.905Z,5.03
2023-03-06T10:09:54.876Z,4.82
2023-03-06T10:12:28.829Z,9.25
2023-03-06T10:15:10.996Z,6.05
2023-03-06T10:17:43.260Z,5.37
2023-03-06T10:20:18.303Z,4.90
2023-03-06T10:23:03.082Z,3.85
2023-03-06T10:25:59.379Z,4.63
2023-03-06T10:28:26.993Z,6.30
2023-03-06T10:31:00.294Z,4.18
2023-03-06T10:33:47.725Z,4.43
2023-03-06T10:36:20.452Z,5.35
2023-03-06T10:38:48.931Z,4.13
2023-03-06T10:41:29.346Z,4.35
2023-03-06T10:44:06.092Z,3.42
2023-03-06T10:46:38.050Z,4.05
2023-03-06T10:49:21.443Z,3.27
2023-03-06T10:52:15.263Z,3.90
2023-03-06T10:54:47.374Z,4.50
2023-03-06T10:57:25.902Z,5.65
2023-03-06T10:59:58.973Z,4.60
2023-03-06T11:02:38.724Z,5.15
2023-03-06T11:05:17.983Z,4.72
2023-03-06T11:07:59.565Z,5.47
2023-03-06T11:10:30.229Z,4.65
2023-03-06T11:13:03.068Z,4.95
2023-03-06T11:18:23.740Z,4.75
2023-03-06T11:20:54.414Z,5.68
2023-03-06T11:23:47.521Z,5.97
2023-03-06T11:26:27.044Z,5.88
2023-03-06T11:29:10.819Z,5.32
2023-03-06T11:32:09.775Z,4.75
2023-03-06T11:34:58.227Z,6.20
2023-03-06T11:37:57.040Z,4.43
2023-03-06T11:40:32.249Z,4.93
2023-03-06T11:43:08.494Z,4.90
2023-03-06T11:45:47.349Z,5.40
2023-03-06T11:48:15.848Z,4.90
2023-03-06T11:51:23.061Z,4.40
2023-03-06T11:53:50.511Z,5.07
2023-03-06T11:56:27.747Z,5.03
2023-03-06T11:59:27.150Z,4.93
2023-03-06T12:02:06.303Z,4.53
2023-03-06T12:05:03.041Z,4.00
2023-03-06T12:07:35.271Z,4.82
2023-03-06T12:10:31.012Z,2.70
2023-03-06T12:13:20.579Z,4.93
2023-03-06T12:16:12.237Z,3.78
2023-03-06T12:18:55.642Z,4.57
2023-03-06T12:22:15.205Z,3.80
2023-03-06T12:25:05.792Z,3.78
2023-03-06T12:27:56.348Z,3.85
2023-03-06T12:31:04.932Z,4.63
2023-03-06T12:33:52.707Z,5.55
2023-03-06T12:36:20.993Z,4.07
2023-03-06T12:38:57.050Z,4.78
2023-03-06T12:41:46.742Z,7.93
2023-03-06T12:44:39.870Z,6.25
2023-03-06T12:47:13.834Z,5.00
2023-03-06T12:49:45.597Z,4.03
2023-03-06T12:52:29.748Z,3.70
2023-03-06T12:55:01.473Z,4.70
2023-03-06T12:57:31.102Z,3.95
2023-03-06T12:59:58.588Z,4.45
2023-03-06T13:02:36.057Z,4.50
2023-03-06T13:05:34.238Z,3.10
2023-03-06T13:08:21.300Z,3.63
2023-03-06T13:11:19.594Z,4.18
2023-03-06T13:13:48.975Z,3.95
2023-03-06T13:16:23.414Z,4.57
2023-03-06T13:18:56.988Z,5.10
2023-03-06T13:21:42.671Z,5.38
2023-03-06T13:24:21.403Z,4.78
2023-03-06T13:26:53.182Z,4.28
2023-03-06T13:29:48.213Z,4.72
2023-03-06T13:32:19.531Z,3.88
2023-03-06T13:34:50.141Z,4.07
2023-03-06T13:37:17.442Z,4.40
2023-03-06T13:39:55.259Z,4.68
2023-03-06T13:42:28.596Z,5.30
2023-03-06T13:44:58.377Z,4.25
2023-03-06T13:48:01.347Z,4.65
2023-03-06T13:50:41.451Z,4.72
2023-03-06T13:53:59.465Z,5.57
2023-03-06T13:56:50.732Z,7.07
2023-03-06T13:59:57.018Z,6.45
2023-03-06T14:03:05.889Z,7.03
2023-03-06T14:05:50.912Z,8.07
2023-03-06T14:08:19.814Z,5.93
2023-03-06T14:10:49.409Z,6.55
2023-03-06T14:13:23.153Z,6.10
2023-03-06T14:15:53.380Z,5.35
2023-03-06T14:18:40.092Z,5.18
2023-03-06T14:21:13.521Z,5.43
2023-03-06T14:23:43.570Z,5.75
2023-03-06T14:26:20.322Z,5.93
2023-03-06T14:28:53.664Z,14.48
2023-03-06T14:31:23.629Z,7.13
2023-03-06T14:33:56.521Z,7.30
2023-03-06T14:38:57.082Z,8.18
2023-03-06T14:41:33.143Z,7.78
2023-03-06T14:44:18.027Z,7.72
2023-03-06T14:46:47.400Z,7.90
2023-03-06T14:49:19.805Z,8.30
2023-03-06T14:51:57.088Z,7.43
2023-03-06T14:54:37.015Z,8.68
2023-03-06T14:57:08.383Z,8.73
2023-03-06T14:59:49.862Z,9.90
2023-03-06T15:02:27.322Z,8.68
2023-03-06T15:05:28.672Z,8.82
2023-03-06T15:08:00.085Z,9.93
2023-03-06T15:10:30.268Z,9.07
2023-03-06T15:13:18.916Z,13.23
2023-03-06T15:16:22.379Z,11.00
2023-03-06T15:19:07.494Z,9.55
2023-03-06T15:21:39.108Z,9.65
2023-03-06T15:26:57.173Z,10.48
2023-03-06T15:29:29.860Z,11.85
2023-03-06T15:32:28.381Z,10.13
2023-03-06T15:35:27.743Z,14.35
2023-03-06T15:37:56.101Z,18.02
2023-03-06T15:40:29.506Z,10.82
2023-03-06T15:42:58.766Z,15.23
2023-03-06T15:45:28.056Z,10.90
2023-03-06T15:47:56.131Z,11.07
2023-03-06T15:50:28.989Z,9.10
2023-03-06T15:52:56.589Z,9.15
2023-03-06T15:55:26.681Z,10.48
2023-03-06T15:58:03.052Z,11.30
2023-03-06T16:00:38.579Z,13.63
2023-03-06T16:03:06.661Z,12.88
2023-03-06T16:05:34.329Z,15.00
2023-03-06T16:08:02.264Z,13.98
2023-03-06T16:10:31.517Z,13.63
2023-03-06T16:13:09.449Z,12.70
2023-03-06T16:15:48.287Z,10.95
2023-03-06T16:18:16.126Z,12.50
2023-03-06T16:20:48.286Z,11.50
2023-03-06T16:23:17.438Z,12.40
2023-03-06T16:25:48.793Z,13.82
2023-03-06T16:28:17.997Z,13.52
2023-03-06T16:30:46.118Z,13.63
2023-03-06T16:33:14.466Z,12.93
2023-03-06T16:35:46.694Z,14.75
2023-03-06T16:38:17.481Z,12.75
2023-03-06T16:40:45.612Z,13.60
2023-03-06T16:43:13.966Z,12.90
2023-03-06T16:45:42.781Z,13.80
2023-03-06T16:48:17.432Z,14.15
2023-03-06T16:50:45.659Z,13.00
2023-03-06T16:53:13.628Z,13.20
2023-03-06T16:55:41.579Z,14.23
2023-03-06T16:58:09.303Z,16.88
2023-03-06T17:00:37.146Z,18.42
2023-03-06T17:03:05.286Z,15.77
2023-03-06T17:05:38.452Z,17.75
2023-03-06T17:08:09.166Z,12.63
2023-03-06T17:10:42.934Z,11.25
2023-03-06T17:13:11.066Z,11.98
2023-03-06T17:15:39.314Z,40.42
2023-03-06T17:18:07.483Z,28.92
2023-03-06T17:20:35.730Z,17.02
2023-03-06T17:23:03.279Z,50.55
2023-03-06T17:25:31.755Z,13.43
2023-03-06T17:28:02.332Z,13.02
2023-03-06T17:30:31.092Z,11.00
2023-03-06T17:32:58.985Z,13.27
2023-03-06T17:35:30.826Z,15.43
2023-03-06T17:37:58.730Z,13.27
2023-03-06T17:40:26.794Z,13.23
2023-03-06T17:42:57.526Z,14.90
2023-03-06T17:45:28.519Z,17.90
2023-03-06T17:47:57.045Z,39.20
2023-03-06T17:50:28.085Z,19.48
2023-03-06T17:53:00.028Z,13.40
2023-03-06T17:55:29.468Z,13.85
2023-03-06T17:57:57.850Z,15.38
2023-03-06T18:00:38.095Z,13.77
2023-03-06T18:03:06.127Z,13.63
2023-03-06T18:05:34.380Z,13.32
2023-03-06T18:08:02.601Z,15.75
2023-03-06T18:10:31.106Z,15.98
2023-03-06T18:12:59.526Z,15.45
2023-03-06T18:15:30.022Z,18.23
2023-03-06T18:18:01.448Z,16.77
2023-03-06T18:20:31.285Z,21.75
2023-03-06T18:23:04.795Z,19.38
2023-03-06T18:25:39.584Z,17.50
2023-03-06T18:28:11.127Z,21.65
2023-03-06T18:30:42.873Z,20.15
2023-03-06T18:33:14.860Z,16.35
2023-03-06T18:35:44.670Z,17.38
2023-03-06T18:38:13.160Z,18.80
2023-03-06T18:40:42.596Z,17.55
2023-03-06T18:43:11.065Z,15.23
2023-03-06T18:45:38.817Z,15.25
2023-03-06T18:48:07.419Z,14.45
2023-03-06T18:50:35.534Z,14.18
2023-03-06T18:53:04.039Z,15.68
2023-03-06T18:55:35.246Z,15.57
2023-03-06T18:58:09.089Z,16.50
2023-03-06T19:00:37.373Z,16.13
2023-03-06T19:03:05.470Z,17.58
2023-03-06T19:05:33.763Z,20.50
2023-03-06T19:08:02.727Z,25.58
2023-03-06T19:10:37.526Z,20.55
2023-03-06T19:13:09.006Z,25.52
2023-03-06T19:15:46.268Z,20.85
2023-03-06T19:18:17.060Z,20.63
2023-03-06T19:20:47.001Z,16.50
2023-03-06T19:23:15.398Z,15.55
2023-03-06T19:25:43.730Z,11.75
2023-03-06T19:28:11.735Z,14.00
2023-03-06T19:30:43.279Z,12.40
2023-03-06T19:33:15.871Z,13.05
2023-03-06T19:35:44.265Z,13.13
2023-03-06T19:38:15.762Z,14.05
2023-03-06T19:40:51.284Z,12.13
2023-03-06T19:43:19.800Z,14.65
2023-03-06T19:45:48.502Z,20.05
2023-03-06T19:48:20.145Z,15.32
2023-03-06T19:50:50.660Z,16.60
2023-03-06T19:53:23.840Z,17.10
2023-03-06T19:55:52.121Z,16.15
2023-03-06T19:58:20.544Z,14.20
2023-03-06T20:00:51.722Z,16.13
2023-03-06T20:03:19.485Z,16.25
2023-03-06T20:05:48.452Z,15.38
2023-03-06T20:08:17.092Z,14.93
2023-03-06T20:10:45.758Z,16.17
2023-03-06T20:13:15.257Z,14.38
2023-03-06T20:15:47.671Z,12.23
2023-03-06T20:18:17.421Z,12.07
2023-03-06T20:21:00.467Z,13.32
2023-03-06T20:23:30.763Z,13.57
2023-03-06T20:26:06.723Z,14.00
2023-03-06T20:28:36.665Z,12.75
2023-03-06T20:31:18.937Z,11.23
2023-03-06T20:33:49.300Z,11.80
2023-03-06T20:36:32.596Z,11.35
2023-03-06T20:39:03.319Z,12.80
2023-03-06T20:41:35.265Z,12.43
2023-03-06T20:44:09.156Z,10.53
2023-03-06T20:46:40.636Z,9.50
2023-03-06T20:49:09.499Z,10.82
2023-03-06T20:58:14.791Z,17.02
2023-03-06T21:00:46.248Z,14.63
2023-03-06T21:03:16.061Z,18.73
2023-03-06T21:05:50.090Z,17.75
2023-03-06T21:08:18.472Z,17.33
2023-03-06T21:10:55.628Z,23.05
2023-03-06T21:14:09.308Z,20.85
2023-03-06T21:16:48.680Z,19.60
2023-03-06T21:19:21.530Z,18.25
2023-03-06T21:21:50.298Z,18.88
2023-03-06T21:24:21.474Z,20.75
2023-03-06T21:26:52.428Z,19.30
2023-03-06T21:29:19.840Z,20.08
2023-03-06T21:31:47.590Z,23.83
2023-03-06T21:34:16.340Z,19.67
2023-03-06T21:39:46.346Z,17.97
2023-03-06T21:42:13.728Z,17.17
2023-03-06T21:44:41.627Z,18.83
2023-03-06T21:47:09.090Z,23.70
2023-03-06T21:49:36.474Z,22.73
2023-03-06T21:52:03.829Z,24.63
2023-03-06T21:54:31.577Z,24.33
2023-03-06T21:56:58.936Z,24.85
2023-03-06T21:59:27.749Z,23.95
2023-03-06T22:01:55.081Z,24.55
2023-03-06T22:04:24.892Z,21.75
2023-03-06T22:06:52.159Z,23.20
2023-03-06T22:09:20.082Z,22.42
2023-03-06T22:11:48.130Z,23.98
2023-03-06T22:14:15.471Z,22.25
2023-03-06T22:16:43.504Z,23.58
2023-03-06T22:19:10.823Z,23.67
2023-03-06T22:21:41.309Z,22.60
2023-03-06T22:24:09.014Z,22.27
2023-03-06T22:26:39.221Z,23.02
2023-03-06T22:29:09.843Z,23.08
2023-03-06T22:31:40.448Z,22.23
2023-03-06T22:34:07.889Z,23.88
2023-03-06T22:36:35.170Z,20.75
2023-03-06T22:46:55.113Z,20.75
2023-03-06T22:49:22.876Z,21.73
2023-03-06T22:51:50.190Z,24.25
2023-03-06T22:54:17.445Z,22.88
2023-03-06T22:56:44.825Z,24.38
2023-03-06T22:59:12.148Z,24.98
2023-03-06T23:01:42.584Z,23.98
2023-03-06T23:04:11.612Z,22.88
2023-03-06T23:06:41.709Z,23.15
2023-03-06T23:09:20.783Z,22.02
2023-03-06T23:12:07.736Z,20.30
2023-03-06T23:14:53.676Z,23.58
2023-03-06T23:17:39.337Z,24.63
2023-03-06T23:20:26.073Z,23.88
2023-03-06T23:23:13.661Z,22.38
2023-03-06T23:25:41.037Z,22.65
2023-03-06T23:28:08.556Z,21.48
2023-03-06T23:30:38.134Z,23.63
2023-03-06T23:33:05.512Z,22.50
2023-03-06T23:35:34.117Z,26.20
2023-03-06T23:38:05.209Z,25.15
2023-03-06T23:40:33.782Z,24.40
2023-03-06T23:43:01.377Z,25.13
2023-03-06T23:45:32.386Z,23.92
2023-03-06T23:47:59.831Z,22.33
2023-03-06T23:50:27.235Z,22.13
2023-03-06T23:53:04.510Z,22.80
2023-03-06T23:55:31.832Z,23.15
2023-03-06T23:57:59.132Z,20.45
